ADDS - METARS form results

Aviation Digital Data Service (ADDS)

Output produced by METARs form (1320 UTC 20 September 2021)
found at http://aviationweather.gov/metar/data/
 
METAR text: KVYS 201255Z AUTO 15008KT 10SM BKN006 OVC013 21/21 A2992 RMK AO2 P0001 T02130208
Conditions at: KVYS (PERU , IL, US) observed 1255 UTC 20 September 2021
Temperature: 21.3°C (70°F)
Dewpoint: 20.8°C (69°F) [RH = 97%]
Pressure (altimeter): 29.92 inches Hg (1013.3 mb)
Winds: from the SSE (150 degrees) at 9 MPH (8 knots; 4.1 m/s)
Visibility: 10 or more miles (16+ km)
Ceiling: 600 feet AGL
Clouds: broken clouds at 600 feet AGL
overcast cloud deck at 1300 feet AGL
Weather: automated observation with no human augmentation;
there may or may not be significant weather present at this time

METAR text: KVYS 201235Z AUTO 14008KT 5SM RA OVC006 21/21 A2992 RMK AO2 P0001 T02130207
Conditions at: KVYS (PERU , IL, US) observed 1235 UTC 20 September 2021
Temperature: 21.3°C (70°F)
Dewpoint: 20.7°C (69°F) [RH = 96%]
Pressure (altimeter): 29.92 inches Hg (1013.3 mb)
Winds: from the SE (140 degrees) at 9 MPH (8 knots; 4.1 m/s)
Visibility: 5 miles ( 8 km)
Ceiling: 600 feet AGL
Clouds: overcast cloud deck at 600 feet AGL
Weather: RA  (moderate rain)